Time;durP1;ratioP1;P1;durP2;ratioP2;P2;SDS_P1;SDS_P2;PMS_P1;PMS_P2;Temp;Humidity;BMP_temperature;BMP_pressure;BME280_temperature;BME280_humidity;BME280_pressure;Samples;Min_cycle;Max_cycle;Signal;HPM_P1;HPM_P2
2023/03/25 00:01:31;;;;;;;10.00;9.50;;;;;;;;;;5069132;28;20009;-68
2023/03/25 00:03:57;;;;;;;9.63;9.18;;;;;;;;;;5072456;28;20487;-69
2023/03/25 00:06:22;;;;;;;9.70;9.23;;;;;;;;;;5072530;28;20024;-68
2023/03/25 00:08:47;;;;;;;9.07;8.68;;;;;;;;;;5070162;28;20024;-69
2023/03/25 00:11:13;;;;;;;9.80;9.30;;;;;;;;;;5069569;28;20025;-68
2023/03/25 00:13:39;;;;;;;9.38;8.98;;;;;;;;;;5070944;28;20078;-69
2023/03/25 00:16:06;;;;;;;9.77;9.27;;;;;;;;;;5072014;28;20021;-69
2023/03/25 00:18:32;;;;;;;9.50;9.10;;;;;;;;;;5072031;28;20111;-68
2023/03/25 00:20:58;;;;;;;9.85;9.35;;;;;;;;;;5072032;28;20024;-68
2023/03/25 00:23:23;;;;;;;10.40;9.90;;;;;;;;;;5071925;28;20035;-69
2023/03/25 00:25:51;;;;;;;9.88;9.38;;;;;;;;;;5069349;28;20472;-69
2023/03/25 00:28:17;;;;;;;9.93;9.43;;;;;;;;;;5071923;28;20091;-69
2023/03/25 00:30:43;;;;;;;9.98;9.48;;;;;;;;;;5058375;28;20112;-70
2023/03/25 00:33:12;;;;;;;10.35;9.85;;;;;;;;;;5071630;28;20095;-68
2023/03/25 00:35:38;;;;;;;9.70;9.23;;;;;;;;;;5071150;28;20138;-69
2023/03/25 00:38:04;;;;;;;9.60;9.18;;;;;;;;;;5071664;28;20444;-69
2023/03/25 00:40:36;;;;;;;10.00;9.50;;;;;;;;;;5062908;28;20043;-69
2023/03/25 00:43:02;;;;;;;9.75;9.25;;;;;;;;;;5059966;28;20052;-69
2023/03/25 00:45:28;;;;;;;9.57;9.13;;;;;;;;;;5070070;28;20032;-69
2023/03/25 00:47:53;;;;;;;9.88;9.38;;;;;;;;;;5071144;28;20086;-69
2023/03/25 00:50:19;;;;;;;9.30;8.90;;;;;;;;;;5070474;28;20100;-69
2023/03/25 00:52:45;;;;;;;9.75;9.25;;;;;;;;;;5058172;28;20704;-69
2023/03/25 00:55:10;;;;;;;10.13;9.63;;;;;;;;;;5065716;28;20020;-69
2023/03/25 00:57:35;;;;;;;9.75;9.25;;;;;;;;;;5069088;28;20472;-68
2023/03/25 01:00:05;;;;;;;10.38;9.88;;;;;;;;;;5071242;28;20031;-69
2023/03/25 01:02:32;;;;;;;9.30;8.90;;;;;;;;;;5076108;28;20051;-69
2023/03/25 01:04:58;;;;;;;9.70;9.20;;;;;;;;;;5078457;28;20024;-68
2023/03/25 01:07:24;;;;;;;9.93;9.43;;;;;;;;;;5067422;28;20024;-69
2023/03/25 01:09:49;;;;;;;9.65;9.15;;;;;;;;;;5061826;28;20047;-69
2023/03/25 01:12:15;;;;;;;9.27;8.88;;;;;;;;;;5071201;28;20046;-69
2023/03/25 01:14:41;;;;;;;9.68;9.18;;;;;;;;;;5069983;28;20027;-69
2023/03/25 01:17:07;;;;;;;9.65;9.18;;;;;;;;;;5069720;28;20021;-68
2023/03/25 01:19:32;;;;;;;9.48;9.07;;;;;;;;;;5071053;28;20024;-69
2023/03/25 01:21:57;;;;;;;9.40;9.00;;;;;;;;;;5064526;28;20090;-69
2023/03/25 01:24:23;;;;;;;9.45;9.05;;;;;;;;;;5071072;28;20051;-70
2023/03/25 01:26:48;;;;;;;9.65;9.15;;;;;;;;;;5069652;28;20021;-69
2023/03/25 01:29:15;;;;;;;9.88;9.38;;;;;;;;;;5063025;28;20021;-69
2023/03/25 01:31:40;;;;;;;9.60;9.10;;;;;;;;;;5068359;28;20048;-69
2023/03/25 01:34:07;;;;;;;9.60;9.10;;;;;;;;;;5071062;28;20052;-70
2023/03/25 01:36:34;;;;;;;9.40;9.00;;;;;;;;;;5063041;28;20484;-69
2023/03/25 01:39:01;;;;;;;9.45;9.05;;;;;;;;;;5070893;28;20009;-69
2023/03/25 01:41:28;;;;;;;9.60;9.13;;;;;;;;;;5070938;28;20028;-69
2023/03/25 01:44:12;;;;;;;9.93;9.43;;;;;;;;;;5070656;28;20060;-69
2023/03/25 01:46:38;;;;;;;9.68;9.18;;;;;;;;;;5070850;28;20368;-69
2023/03/25 01:49:06;;;;;;;9.80;9.30;;;;;;;;;;5069630;28;20034;-69
2023/03/25 01:51:34;;;;;;;9.43;9.02;;;;;;;;;;5063703;28;20016;-69
2023/03/25 01:53:59;;;;;;;9.27;8.88;;;;;;;;;;5070650;28;20066;-69
2023/03/25 01:56:29;;;;;;;9.57;9.15;;;;;;;;;;5070881;28;20410;-68
2023/03/25 01:58:56;;;;;;;9.13;8.73;;;;;;;;;;5070770;28;20044;-69
2023/03/25 02:01:22;;;;;;;9.35;8.95;;;;;;;;;;5070540;28;20049;-69
2023/03/25 02:03:50;;;;;;;9.95;9.45;;;;;;;;;;5065714;28;20104;-69
2023/03/25 02:06:21;;;;;;;9.40;9.00;;;;;;;;;;5065833;28;20036;-69
2023/03/25 02:08:47;;;;;;;9.02;8.63;;;;;;;;;;5070691;28;20024;-69
2023/03/25 02:11:13;;;;;;;9.40;9.00;;;;;;;;;;5078281;28;20020;-69
2023/03/25 02:13:39;;;;;;;9.25;8.85;;;;;;;;;;5076879;28;20091;-69
2023/03/25 02:16:11;;;;;;;9.70;9.20;;;;;;;;;;5070597;28;20070;-69
2023/03/25 02:18:42;;;;;;;9.45;9.05;;;;;;;;;;5064313;28;20011;-69
2023/03/25 02:21:37;;;;;;;9.85;9.35;;;;;;;;;;5070456;28;20456;-69
2023/03/25 02:24:03;;;;;;;;;;;;;;;;;;5063176;28;20078;-69
2023/03/25 02:26:43;;;;;;;9.32;8.93;;;;;;;;;;5064071;28;19909;-69
2023/03/25 02:29:27;;;;;;;10.27;9.77;;;;;;;;;;5068040;28;20036;-69
2023/03/25 02:32:11;;;;;;;10.38;9.88;;;;;;;;;;5065591;28;20036;-69
2023/03/25 02:34:55;;;;;;;9.68;9.18;;;;;;;;;;5069479;28;20069;-69
2023/03/25 02:37:33;;;;;;;9.83;9.33;;;;;;;;;;5069954;28;20036;-69
2023/03/25 02:40:03;;;;;;;9.95;9.45;;;;;;;;;;5069258;28;20506;-69
2023/03/25 02:42:46;;;;;;;9.73;9.23;;;;;;;;;;5070686;28;20408;-69
2023/03/25 02:45:21;;;;;;;9.65;9.15;;;;;;;;;;5057491;28;20074;-69
2023/03/25 02:47:46;;;;;;;;;;;;;;;;;;5066136;28;20515;-69
2023/03/25 02:50:24;;;;;;;9.55;9.05;;;;;;;;;;5073756;28;19952;-69
2023/03/25 02:52:50;;;;;;;9.30;8.90;;;;;;;;;;5072893;28;20078;-69
2023/03/25 02:55:17;;;;;;;9.25;8.85;;;;;;;;;;5073497;28;20043;-69
2023/03/25 02:57:44;;;;;;;9.57;9.07;;;;;;;;;;5072496;28;20089;-69
2023/03/25 03:00:14;;;;;;;9.85;9.35;;;;;;;;;;5072747;28;20039;-69
2023/03/25 03:03:01;;;;;;;9.63;9.15;;;;;;;;;;5073413;28;20016;-69
2023/03/25 03:05:26;;;;;;;9.65;9.15;;;;;;;;;;5072076;28;20035;-70
2023/03/25 03:07:54;;;;;;;9.20;8.80;;;;;;;;;;5073120;28;20328;-69
2023/03/25 03:10:21;;;;;;;9.07;8.68;;;;;;;;;;5072923;28;20098;-68
2023/03/25 03:12:49;;;;;;;9.27;8.88;;;;;;;;;;5071867;28;20027;-68
2023/03/25 03:15:21;;;;;;;9.68;9.18;;;;;;;;;;5065779;28;20031;-72
2023/03/25 03:18:06;;;;;;;9.70;9.20;;;;;;;;;;5073170;28;20086;-68
2023/03/25 03:20:31;;;;;;;9.73;9.23;;;;;;;;;;5051591;28;20029;-70
2023/03/25 03:23:06;;;;;;;9.68;9.18;;;;;;;;;;5071566;28;20478;-69
2023/03/25 03:25:37;;;;;;;9.57;9.10;;;;;;;;;;5071967;28;20081;-68
2023/03/25 03:28:08;;;;;;;9.13;8.73;;;;;;;;;;5068933;28;20013;-70
2023/03/25 03:30:38;;;;;;;9.80;9.30;;;;;;;;;;5058481;28;20375;-68
2023/03/25 03:33:14;;;;;;;9.18;8.77;;;;;;;;;;5072951;28;20012;-70
2023/03/25 03:35:48;;;;;;;9.18;8.77;;;;;;;;;;5072903;28;20017;-68
2023/03/25 03:38:16;;;;;;;9.77;9.27;;;;;;;;;;5073006;28;20395;-69
2023/03/25 03:40:44;;;;;;;9.68;9.18;;;;;;;;;;5071572;28;20016;-69
2023/03/25 03:43:12;;;;;;;9.95;9.45;;;;;;;;;;5071314;28;20033;-69
2023/03/25 03:45:41;;;;;;;9.30;8.90;;;;;;;;;;5072923;28;20100;-69
2023/03/25 03:48:11;;;;;;;9.82;9.32;;;;;;;;;;5072070;28;20435;-69
2023/03/25 03:50:39;;;;;;;9.07;8.68;;;;;;;;;;5072849;28;20012;-68
2023/03/25 03:53:11;;;;;;;9.00;8.60;;;;;;;;;;5073412;28;20016;-68
2023/03/25 03:55:42;;;;;;;8.95;8.55;;;;;;;;;;5072367;28;20017;-68
2023/03/25 03:58:10;;;;;;;8.98;8.57;;;;;;;;;;5060073;28;20162;-68
2023/03/25 04:00:40;;;;;;;9.10;8.70;;;;;;;;;;5073076;28;20021;-68
2023/03/25 04:03:13;;;;;;;9.73;9.23;;;;;;;;;;5073512;28;20051;-68
2023/03/25 04:05:39;;;;;;;9.35;8.93;;;;;;;;;;5068244;28;20035;-69
2023/03/25 04:08:11;;;;;;;9.40;8.98;;;;;;;;;;5070801;28;20020;-68
2023/03/25 04:10:38;;;;;;;9.48;9.02;;;;;;;;;;5065351;28;20104;-69
2023/03/25 04:13:06;;;;;;;9.40;9.00;;;;;;;;;;5069291;28;20476;-68
2023/03/25 04:15:32;;;;;;;9.30;8.90;;;;;;;;;;5072272;28;20444;-69
2023/03/25 04:17:57;;;;;;;9.90;9.40;;;;;;;;;;5071560;28;20036;-69
2023/03/25 04:20:24;;;;;;;9.32;8.93;;;;;;;;;;5072155;28;20024;-69
2023/03/25 04:22:50;;;;;;;9.45;9.00;;;;;;;;;;5071342;28;20395;-69
2023/03/25 04:25:16;;;;;;;9.15;8.75;;;;;;;;;;5069240;28;20024;-69
2023/03/25 04:27:47;;;;;;;9.70;9.20;;;;;;;;;;5072225;28;20077;-69
2023/03/25 04:30:13;;;;;;;9.40;8.98;;;;;;;;;;5070318;28;20031;-68
2023/03/25 04:32:38;;;;;;;9.93;9.43;;;;;;;;;;5071198;28;20020;-69
2023/03/25 04:35:04;;;;;;;9.70;9.20;;;;;;;;;;5071651;28;20016;-68
2023/03/25 04:37:32;;;;;;;9.30;8.90;;;;;;;;;;5071683;28;20431;-68
2023/03/25 04:39:58;;;;;;;9.70;9.20;;;;;;;;;;5067062;28;20046;-70
2023/03/25 04:42:31;;;;;;;10.38;9.88;;;;;;;;;;5068856;28;20395;-69
2023/03/25 04:44:56;;;;;;;9.80;9.30;;;;;;;;;;5060341;28;20496;-69
2023/03/25 04:47:23;;;;;;;9.77;9.27;;;;;;;;;;5071151;28;20090;-69
2023/03/25 04:49:49;;;;;;;9.77;9.27;;;;;;;;;;5069838;28;20025;-69
2023/03/25 04:52:15;;;;;;;9.75;9.25;;;;;;;;;;5072035;28;20478;-69
2023/03/25 04:54:41;;;;;;;9.55;9.10;;;;;;;;;;5082619;28;20016;-70
2023/03/25 04:57:09;;;;;;;9.45;9.05;;;;;;;;;;5070497;28;20012;-69
2023/03/25 04:59:34;;;;;;;9.05;8.65;;;;;;;;;;5066716;28;20124;-69
2023/03/25 05:02:12;;;;;;;10.13;9.63;;;;;;;;;;5071107;28;20099;-69
2023/03/25 05:04:40;;;;;;;9.70;9.20;;;;;;;;;;5071247;28;20016;-69
2023/03/25 05:07:06;;;;;;;9.95;9.45;;;;;;;;;;5064976;28;20551;-69
2023/03/25 05:09:31;;;;;;;9.50;9.10;;;;;;;;;;5071019;28;20092;-69
2023/03/25 05:11:56;;;;;;;9.18;8.77;;;;;;;;;;5065688;28;20013;-69
2023/03/25 05:14:21;;;;;;;9.43;9.02;;;;;;;;;;5060028;28;20112;-69
2023/03/25 05:16:47;;;;;;;10.73;10.23;;;;;;;;;;5070934;28;20042;-69
2023/03/25 05:19:13;;;;;;;10.02;9.52;;;;;;;;;;5070838;28;20063;-69
2023/03/25 05:21:39;;;;;;;9.50;9.10;;;;;;;;;;5066860;28;20020;-69
2023/03/25 05:24:09;;;;;;;10.18;9.68;;;;;;;;;;5070863;28;20029;-69
2023/03/25 05:26:35;;;;;;;10.50;10.00;;;;;;;;;;5071252;28;20021;-69
2023/03/25 05:29:04;;;;;;;10.32;9.82;;;;;;;;;;5070733;28;20070;-69
2023/03/25 05:31:29;;;;;;;9.95;9.55;;;;;;;;;;5070017;28;20060;-69
2023/03/25 05:33:55;;;;;;;10.50;10.00;;;;;;;;;;5070891;28;20052;-69
2023/03/25 05:36:23;;;;;;;10.43;9.93;;;;;;;;;;5069149;28;20099;-69
2023/03/25 05:38:49;;;;;;;10.40;9.90;;;;;;;;;;5070892;28;20044;-68
2023/03/25 05:41:17;;;;;;;9.80;9.40;;;;;;;;;;5070655;28;20060;-70
2023/03/25 05:43:46;;;;;;;9.90;9.50;;;;;;;;;;5070641;28;20020;-69
2023/03/25 05:46:14;;;;;;;10.23;9.80;;;;;;;;;;5070777;28;20076;-70
2023/03/25 05:48:40;;;;;;;10.23;9.82;;;;;;;;;;5074117;28;20017;-69
2023/03/25 05:51:12;;;;;;;10.00;9.60;;;;;;;;;;5062489;28;20099;-68
2023/03/25 05:53:38;;;;;;;10.23;9.82;;;;;;;;;;5070840;28;20025;-69
2023/03/25 05:56:03;;;;;;;10.50;10.00;;;;;;;;;;5070541;28;20020;-69
2023/03/25 05:58:31;;;;;;;9.80;9.40;;;;;;;;;;5066556;28;20090;-69
2023/03/25 06:00:58;;;;;;;10.43;9.93;;;;;;;;;;5069121;28;20033;-70
2023/03/25 06:03:24;;;;;;;10.18;9.77;;;;;;;;;;5069891;28;20095;-69
2023/03/25 06:05:51;;;;;;;10.00;9.60;;;;;;;;;;5069989;28;20544;-69
2023/03/25 06:08:18;;;;;;;10.50;10.00;;;;;;;;;;5070841;28;20017;-69
2023/03/25 06:10:44;;;;;;;10.77;10.27;;;;;;;;;;5070657;28;20071;-69
2023/03/25 06:13:10;;;;;;;10.35;9.85;;;;;;;;;;5070481;28;20151;-69
2023/03/25 06:15:39;;;;;;;10.13;9.73;;;;;;;;;;5071096;28;20092;-68
2023/03/25 06:18:04;;;;;;;10.40;9.90;;;;;;;;;;5068809;28;20012;-69
2023/03/25 06:20:30;;;;;;;9.85;9.45;;;;;;;;;;5070638;28;20020;-70
2023/03/25 06:22:55;;;;;;;10.02;9.63;;;;;;;;;;5059376;28;20102;-69
2023/03/25 06:25:20;;;;;;;10.30;9.80;;;;;;;;;;5070587;28;20037;-69
2023/03/25 06:27:47;;;;;;;9.90;9.50;;;;;;;;;;5074159;28;20464;-69
2023/03/25 06:30:14;;;;;;;9.90;9.50;;;;;;;;;;5074545;28;20551;-69
2023/03/25 06:32:40;;;;;;;10.40;9.90;;;;;;;;;;5063368;28;20096;-69
2023/03/25 06:35:06;;;;;;;11.35;10.85;;;;;;;;;;5073534;28;20016;-68
2023/03/25 06:37:31;;;;;;;10.57;10.07;;;;;;;;;;5073061;28;20021;-69
2023/03/25 06:39:58;;;;;;;10.25;9.75;;;;;;;;;;5072434;28;20392;-70
2023/03/25 06:42:27;;;;;;;10.93;10.43;;;;;;;;;;5074626;28;20024;-68
2023/03/25 06:44:53;;;;;;;10.40;9.90;;;;;;;;;;5070738;28;20021;-68
2023/03/25 06:47:19;;;;;;;10.10;9.70;;;;;;;;;;5067263;28;20495;-70
2023/03/25 06:49:44;;;;;;;9.88;9.48;;;;;;;;;;5060323;28;20036;-69
2023/03/25 06:52:10;;;;;;;9.80;9.40;;;;;;;;;;5073662;28;20023;-69
2023/03/25 06:54:36;;;;;;;10.43;9.93;;;;;;;;;;5073238;28;20029;-69
2023/03/25 06:57:01;;;;;;;9.93;9.52;;;;;;;;;;5073435;28;20016;-69
2023/03/25 06:59:27;;;;;;;10.02;9.63;;;;;;;;;;5063615;28;20072;-69
2023/03/25 07:01:52;;;;;;;9.88;9.48;;;;;;;;;;5073412;28;20032;-69
2023/03/25 07:04:17;;;;;;;10.50;10.00;;;;;;;;;;5073374;28;20037;-69
2023/03/25 07:06:43;;;;;;;10.18;9.77;;;;;;;;;;5073547;28;20012;-68
2023/03/25 07:09:08;;;;;;;10.35;9.88;;;;;;;;;;5073577;28;20023;-69
2023/03/25 07:11:33;;;;;;;10.57;10.07;;;;;;;;;;5072574;28;20029;-69
2023/03/25 07:13:59;;;;;;;10.60;10.10;;;;;;;;;;5070135;28;20100;-68
2023/03/25 07:16:25;;;;;;;10.05;9.65;;;;;;;;;;5073512;28;20442;-68
2023/03/25 07:18:50;;;;;;;10.45;9.95;;;;;;;;;;5073460;28;20009;-68
2023/03/25 07:21:16;;;;;;;10.50;10.00;;;;;;;;;;5073307;28;20108;-68
2023/03/25 07:23:41;;;;;;;10.40;9.90;;;;;;;;;;5072984;28;20052;-69
2023/03/25 07:26:07;;;;;;;9.95;9.55;;;;;;;;;;5072711;28;20073;-67
2023/03/25 07:28:32;;;;;;;9.82;9.43;;;;;;;;;;5062000;28;20020;-69
2023/03/25 07:30:58;;;;;;;10.63;10.13;;;;;;;;;;5060611;28;20060;-69
2023/03/25 07:33:23;;;;;;;9.98;9.57;;;;;;;;;;5072540;28;20062;-68
2023/03/25 07:35:49;;;;;;;10.27;9.82;;;;;;;;;;5071824;28;20016;-70
2023/03/25 07:38:14;;;;;;;10.55;10.05;;;;;;;;;;5073205;28;20378;-69
2023/03/25 07:40:40;;;;;;;9.98;9.57;;;;;;;;;;5072597;28;20035;-69
2023/03/25 07:43:05;;;;;;;10.13;9.73;;;;;;;;;;5064956;28;20020;-69
2023/03/25 07:45:31;;;;;;;10.15;9.75;;;;;;;;;;5071841;28;20021;-69
2023/03/25 07:47:56;;;;;;;10.00;9.60;;;;;;;;;;5073006;28;20542;-69
2023/03/25 07:50:22;;;;;;;10.00;9.60;;;;;;;;;;5072326;28;20025;-69
2023/03/25 07:52:47;;;;;;;10.40;9.90;;;;;;;;;;5077606;28;20126;-69
2023/03/25 07:55:13;;;;;;;10.73;10.23;;;;;;;;;;5075214;28;20024;-69
2023/03/25 07:57:39;;;;;;;10.40;9.90;;;;;;;;;;5065646;28;20023;-68
2023/03/25 08:00:05;;;;;;;11.00;10.50;;;;;;;;;;5065019;28;20478;-68
2023/03/25 08:02:31;;;;;;;10.70;10.20;;;;;;;;;;5071159;28;20032;-68
2023/03/25 08:04:56;;;;;;;10.40;9.90;;;;;;;;;;5072401;28;20035;-71
2023/03/25 08:07:21;;;;;;;10.15;9.73;;;;;;;;;;5072204;28;20012;-69
2023/03/25 08:09:47;;;;;;;10.30;9.80;;;;;;;;;;5071762;28;20025;-69
2023/03/25 08:12:12;;;;;;;10.35;9.85;;;;;;;;;;5071904;28;20013;-68
2023/03/25 08:14:37;;;;;;;10.40;9.90;;;;;;;;;;5072063;28;20086;-70
2023/03/25 08:17:06;;;;;;;10.70;10.20;;;;;;;;;;5072964;28;20112;-69
2023/03/25 08:19:31;;;;;;;10.15;9.73;;;;;;;;;;5072216;28;20024;-70
2023/03/25 08:21:57;;;;;;;10.40;9.90;;;;;;;;;;5072969;28;20411;-70
2023/03/25 08:24:25;;;;;;;10.05;9.65;;;;;;;;;;5060255;28;20017;-70
2023/03/25 08:26:51;;;;;;;10.20;9.80;;;;;;;;;;5071888;28;20582;-70
2023/03/25 08:29:16;;;;;;;10.68;10.18;;;;;;;;;;5071743;28;20054;-69
2023/03/25 08:31:45;;;;;;;10.57;10.07;;;;;;;;;;5060276;28;20391;-69
2023/03/25 08:34:11;;;;;;;10.50;10.00;;;;;;;;;;5071209;28;20475;-68
2023/03/25 08:36:38;;;;;;;10.13;9.73;;;;;;;;;;5070574;28;20066;-69
2023/03/25 08:39:08;;;;;;;10.60;10.10;;;;;;;;;;5063053;28;20025;-68
2023/03/25 08:41:33;;;;;;;10.70;10.20;;;;;;;;;;5071566;28;20127;-69
2023/03/25 08:43:59;;;;;;;10.25;9.80;;;;;;;;;;5071161;28;20111;-69
2023/03/25 08:46:24;;;;;;;10.98;10.48;;;;;;;;;;5071207;28;20016;-68
2023/03/25 08:48:50;;;;;;;10.45;9.95;;;;;;;;;;5071371;28;20016;-69
2023/03/25 08:51:15;;;;;;;10.77;10.27;;;;;;;;;;5068058;28;20024;-69
2023/03/25 08:53:40;;;;;;;10.70;10.20;;;;;;;;;;5076252;28;20101;-69
2023/03/25 08:56:06;;;;;;;10.68;10.18;;;;;;;;;;5058888;28;20040;-69
2023/03/25 08:58:31;;;;;;;10.43;9.93;;;;;;;;;;5060400;28;20040;-69
2023/03/25 09:00:57;;;;;;;10.75;10.25;;;;;;;;;;5069535;28;20181;-69
2023/03/25 09:03:22;;;;;;;10.40;9.90;;;;;;;;;;5071115;28;20031;-68
2023/03/25 09:05:48;;;;;;;10.80;10.30;;;;;;;;;;5065288;28;20059;-69
2023/03/25 09:08:13;;;;;;;10.32;9.88;;;;;;;;;;5067465;28;20029;-69
2023/03/25 09:10:38;;;;;;;10.50;10.00;;;;;;;;;;5070511;28;20017;-68
2023/03/25 09:13:03;;;;;;;10.32;9.88;;;;;;;;;;5071291;28;20530;-69
2023/03/25 09:15:29;;;;;;;10.45;9.95;;;;;;;;;;5070861;28;20357;-68
2023/03/25 09:17:54;;;;;;;10.40;9.90;;;;;;;;;;5070582;28;20033;-68
2023/03/25 09:20:20;;;;;;;10.05;9.65;;;;;;;;;;5071008;28;20024;-69
2023/03/25 09:22:45;;;;;;;9.93;9.52;;;;;;;;;;5071220;28;20024;-69
2023/03/25 09:25:10;;;;;;;10.93;10.43;;;;;;;;;;5069299;28;20111;-69
2023/03/25 09:27:36;;;;;;;10.85;10.35;;;;;;;;;;5068752;28;20074;-69
2023/03/25 09:30:02;;;;;;;10.50;10.00;;;;;;;;;;5068982;28;20020;-69
2023/03/25 09:32:27;;;;;;;10.65;10.15;;;;;;;;;;5066167;28;20013;-69
2023/03/25 09:34:53;;;;;;;10.50;10.00;;;;;;;;;;5070688;28;20028;-69
2023/03/25 09:37:18;;;;;;;10.13;9.73;;;;;;;;;;5069557;28;20107;-69
2023/03/25 09:39:43;;;;;;;10.68;10.18;;;;;;;;;;5070705;28;20021;-69
2023/03/25 09:42:26;;;;;;;10.73;10.23;;;;;;;;;;5070806;28;20024;-69
2023/03/25 09:44:58;;;;;;;10.50;10.00;;;;;;;;;;5058542;28;20128;-68
2023/03/25 09:47:24;;;;;;;10.10;9.70;;;;;;;;;;5071037;28;20353;-69
2023/03/25 09:49:53;;;;;;;10.57;10.07;;;;;;;;;;5070868;28;20020;-70
2023/03/25 09:52:24;;;;;;;10.65;10.15;;;;;;;;;;5070557;28;20009;-69
2023/03/25 09:54:52;;;;;;;10.15;9.75;;;;;;;;;;5070352;28;20036;-70
2023/03/25 09:57:21;;;;;;;10.48;9.98;;;;;;;;;;5062949;28;20012;-68
2023/03/25 09:59:48;;;;;;;9.80;9.40;;;;;;;;;;5073839;28;20487;-68
2023/03/25 10:02:34;;;;;;;10.20;9.80;;;;;;;;;;5068402;28;20021;-69
2023/03/25 10:04:59;;;;;;;10.20;9.80;;;;;;;;;;5067015;28;20093;-68
2023/03/25 10:07:28;;;;;;;10.20;9.80;;;;;;;;;;5074421;28;20052;-69
2023/03/25 10:09:59;;;;;;;10.10;9.70;;;;;;;;;;5074307;28;20024;-69
2023/03/25 10:12:30;;;;;;;10.02;9.63;;;;;;;;;;5074245;28;20426;-69
2023/03/25 10:15:09;;;;;;;10.32;9.82;;;;;;;;;;5074358;28;20035;-69
2023/03/25 10:17:37;;;;;;;10.38;9.88;;;;;;;;;;5063292;28;20146;-69
2023/03/25 10:20:04;;;;;;;10.07;9.68;;;;;;;;;;5071920;28;20043;-69
2023/03/25 10:22:35;;;;;;;10.35;9.85;;;;;;;;;;5069843;28;20020;-69
2023/03/25 10:25:05;;;;;;;10.05;9.65;;;;;;;;;;5074081;28;20024;-69
2023/03/25 10:27:34;;;;;;;10.18;9.77;;;;;;;;;;5069005;28;20025;-69
2023/03/25 10:30:11;;;;;;;10.60;10.10;;;;;;;;;;5068407;28;20036;-69
2023/03/25 10:32:43;;;;;;;11.05;10.55;;;;;;;;;;5056374;28;20074;-68
2023/03/25 10:35:11;;;;;;;11.27;10.77;;;;;;;;;;5058995;28;20031;-69
2023/03/25 10:37:40;;;;;;;10.60;10.10;;;;;;;;;;5072782;28;20107;-69
2023/03/25 10:40:15;;;;;;;10.77;10.27;;;;;;;;;;5073595;28;20557;-69
2023/03/25 10:42:54;;;;;;;10.73;10.23;;;;;;;;;;5073648;28;20025;-68
2023/03/25 10:45:21;;;;;;;10.07;9.65;;;;;;;;;;5073105;28;20017;-68
2023/03/25 10:47:48;;;;;;;10.60;10.10;;;;;;;;;;5073283;28;20075;-69
2023/03/25 10:50:15;;;;;;;11.20;10.70;;;;;;;;;;5073366;28;20408;-69
2023/03/25 10:52:41;;;;;;;10.35;9.85;;;;;;;;;;5071244;28;20091;-69
2023/03/25 10:55:12;;;;;;;10.60;10.10;;;;;;;;;;5061870;28;20554;-69
2023/03/25 10:57:39;;;;;;;10.30;9.85;;;;;;;;;;5073054;28;20074;-70
2023/03/25 11:00:15;;;;;;;10.43;9.93;;;;;;;;;;5069174;28;20033;-68
2023/03/25 11:02:41;;;;;;;10.40;9.90;;;;;;;;;;5057882;28;20104;-69
2023/03/25 11:05:06;;;;;;;11.05;10.55;;;;;;;;;;5071992;28;20471;-69
2023/03/25 11:07:52;;;;;;;9.80;9.40;;;;;;;;;;5073300;28;20454;-69
2023/03/25 11:10:17;;;;;;;9.82;9.43;;;;;;;;;;5059555;28;20534;-69
2023/03/25 11:12:46;;;;;;;10.30;9.80;;;;;;;;;;5073515;28;20024;-68
2023/03/25 11:15:32;;;;;;;10.40;9.90;;;;;;;;;;5059238;28;20446;-69
2023/03/25 11:17:57;;;;;;;12.05;11.45;;;;;;;;;;5072885;28;20080;-70
2023/03/25 11:20:26;;;;;;;10.80;10.30;;;;;;;;;;5072159;28;20437;-70
2023/03/25 11:22:53;;;;;;;11.52;11.02;;;;;;;;;;5072519;28;20498;-68
2023/03/25 11:25:19;;;;;;;11.38;10.88;;;;;;;;;;5072089;28;20028;-71
2023/03/25 11:28:04;;;;;;;10.40;9.90;;;;;;;;;;5071801;28;20027;-70
2023/03/25 11:30:30;;;;;;;11.50;11.00;;;;;;;;;;5063213;28;20511;-68
2023/03/25 11:33:01;;;;;;;10.82;10.32;;;;;;;;;;5072331;28;20020;-69
2023/03/25 11:35:28;;;;;;;10.10;9.70;;;;;;;;;;5059176;28;20016;-70
2023/03/25 11:37:55;;;;;;;10.43;9.93;;;;;;;;;;5072671;28;20017;-68
2023/03/25 11:40:21;;;;;;;10.60;10.10;;;;;;;;;;5072231;28;20028;-69
2023/03/25 11:42:51;;;;;;;10.48;9.98;;;;;;;;;;5072500;28;20074;-68
2023/03/25 11:45:24;;;;;;;9.80;9.40;;;;;;;;;;5071767;28;20021;-68
2023/03/25 11:47:50;;;;;;;9.80;9.40;;;;;;;;;;5074614;28;20416;-69
2023/03/25 11:50:21;;;;;;;10.75;10.25;;;;;;;;;;5072255;28;20036;-69
2023/03/25 11:52:48;;;;;;;10.00;9.60;;;;;;;;;;5075674;28;20445;-69
2023/03/25 11:55:23;;;;;;;10.65;10.15;;;;;;;;;;5060200;28;20029;-69
2023/03/25 11:57:50;;;;;;;9.95;9.55;;;;;;;;;;5058306;28;20044;-68
2023/03/25 12:00:21;;;;;;;9.50;9.10;;;;;;;;;;5072048;28;20028;-69
2023/03/25 12:02:46;;;;;;;10.00;9.60;;;;;;;;;;5061087;28;20551;-70
2023/03/25 12:05:13;;;;;;;10.15;9.73;;;;;;;;;;5071844;28;20116;-69
2023/03/25 12:07:43;;;;;;;10.40;9.90;;;;;;;;;;5072160;28;20035;-69
2023/03/25 12:10:16;;;;;;;10.05;9.65;;;;;;;;;;5072108;28;20165;-69
2023/03/25 12:12:50;;;;;;;9.98;9.57;;;;;;;;;;5058890;28;20012;-68
2023/03/25 12:15:16;;;;;;;;;;;;;;;;;;5071663;28;20104;-70
2023/03/25 12:17:54;;;;;;;11.45;10.95;;;;;;;;;;5069150;28;19908;-70
2023/03/25 12:20:38;;;;;;;10.40;9.90;;;;;;;;;;5057581;28;20028;-70
2023/03/25 12:23:04;;;;;;;10.30;9.82;;;;;;;;;;5058000;28;20039;-69
2023/03/25 12:25:40;;;;;;;10.65;10.15;;;;;;;;;;5061709;28;20452;-69
2023/03/25 12:28:06;;;;;;;10.40;9.90;;;;;;;;;;5061400;28;20024;-69
2023/03/25 12:30:35;;;;;;;10.20;9.73;;;;;;;;;;5064846;28;20016;-69
2023/03/25 12:33:05;;;;;;;10.68;10.18;;;;;;;;;;5065000;28;20023;-68
2023/03/25 12:35:31;;;;;;;10.07;9.68;;;;;;;;;;5070846;28;20013;-68
2023/03/25 12:38:02;;;;;;;10.52;10.02;;;;;;;;;;5071302;28;20073;-69
2023/03/25 12:40:46;;;;;;;10.10;9.70;;;;;;;;;;5071503;28;20048;-69
2023/03/25 12:43:14;;;;;;;10.07;9.65;;;;;;;;;;5061691;28;20028;-69
2023/03/25 12:45:40;;;;;;;10.40;9.90;;;;;;;;;;5069015;28;20478;-67
2023/03/25 12:48:06;;;;;;;10.23;9.73;;;;;;;;;;5055624;28;20043;-69
2023/03/25 12:50:35;;;;;;;10.23;9.77;;;;;;;;;;5071618;28;20070;-68
2023/03/25 12:53:06;;;;;;;10.00;9.60;;;;;;;;;;5074116;28;20036;-69
2023/03/25 12:55:41;;;;;;;10.07;9.68;;;;;;;;;;5067568;28;20013;-69
2023/03/25 12:58:19;;;;;;;10.15;9.73;;;;;;;;;;5057541;28;20040;-68
2023/03/25 13:00:53;;;;;;;10.57;10.07;;;;;;;;;;5071082;28;20016;-68
2023/03/25 13:03:27;;;;;;;10.30;9.80;;;;;;;;;;5057458;28;20024;-69
2023/03/25 13:06:15;;;;;;;9.90;9.50;;;;;;;;;;5070935;28;20031;-68
2023/03/25 13:08:40;;;;;;;10.27;9.82;;;;;;;;;;5070480;28;20020;-69
2023/03/25 13:11:07;;;;;;;10.32;9.82;;;;;;;;;;5073122;28;20031;-69
2023/03/25 13:13:35;;;;;;;9.98;9.57;;;;;;;;;;5070968;28;20559;-69
2023/03/25 13:16:13;;;;;;;9.93;9.52;;;;;;;;;;5070975;28;20575;-70
2023/03/25 13:18:42;;;;;;;10.00;9.60;;;;;;;;;;5070870;28;20024;-70
2023/03/25 13:21:14;;;;;;;10.50;10.00;;;;;;;;;;5065328;28;20013;-69
2023/03/25 13:23:41;;;;;;;10.10;9.70;;;;;;;;;;5070913;28;20020;-69
2023/03/25 13:26:08;;;;;;;10.40;9.90;;;;;;;;;;5070100;28;20017;-69
2023/03/25 13:28:54;;;;;;;9.98;9.57;;;;;;;;;;5069491;28;20059;-70
2023/03/25 13:31:22;;;;;;;10.10;9.70;;;;;;;;;;5068962;28;20025;-69
2023/03/25 13:33:52;;;;;;;9.90;9.50;;;;;;;;;;5070779;28;20045;-70
2023/03/25 13:36:28;;;;;;;9.98;9.57;;;;;;;;;;5070537;28;20008;-68
2023/03/25 13:39:09;;;;;;;10.10;9.68;;;;;;;;;;5070674;28;20100;-72
2023/03/25 13:41:46;;;;;;;10.70;10.20;;;;;;;;;;5070556;28;20027;-69
2023/03/25 13:44:15;;;;;;;11.07;10.57;;;;;;;;;;5068090;28;20582;-69
2023/03/25 13:46:43;;;;;;;10.70;10.20;;;;;;;;;;5070502;28;20585;-71
2023/03/25 13:49:21;;;;;;;10.80;10.30;;;;;;;;;;5070456;28;20388;-70
2023/03/25 13:51:47;;;;;;;10.52;10.02;;;;;;;;;;5070386;28;20060;-69
2023/03/25 13:54:24;;;;;;;10.30;9.80;;;;;;;;;;5069580;28;20099;-70
2023/03/25 13:57:09;;;;;;;10.00;9.60;;;;;;;;;;5070281;28;20629;-69
2023/03/25 13:59:35;;;;;;;10.30;9.80;;;;;;;;;;5068363;28;20381;-70
2023/03/25 14:02:19;;;;;;;9.82;9.43;;;;;;;;;;5070234;28;20078;-69
2023/03/25 14:05:04;;;;;;;10.68;10.18;;;;;;;;;;5070252;28;20017;-69
2023/03/25 14:07:32;;;;;;;9.77;9.38;;;;;;;;;;5070384;28;20431;-69
2023/03/25 14:10:09;;;;;;;10.35;9.85;;;;;;;;;;5069165;28;20036;-70
2023/03/25 14:12:34;;;;;;;10.10;9.70;;;;;;;;;;5070443;28;20020;-69
2023/03/25 14:15:00;;;;;;;10.40;9.90;;;;;;;;;;5067993;28;20013;-69
2023/03/25 14:17:27;;;;;;;10.35;9.85;;;;;;;;;;5069459;28;20372;-70
2023/03/25 14:19:57;;;;;;;10.40;9.90;;;;;;;;;;5064476;28;20021;-69
2023/03/25 14:22:26;;;;;;;10.45;9.95;;;;;;;;;;5065946;28;20023;-70
2023/03/25 14:24:52;;;;;;;10.45;9.95;;;;;;;;;;5070248;28;20556;-69
2023/03/25 14:27:31;;;;;;;10.52;10.02;;;;;;;;;;5069846;28;20440;-69
2023/03/25 14:29:58;;;;;;;11.07;10.57;;;;;;;;;;5069780;28;20084;-69
2023/03/25 14:32:32;;;;;;;10.63;10.13;;;;;;;;;;5070323;28;20021;-70
2023/03/25 14:35:16;;;;;;;11.00;10.50;;;;;;;;;;5062088;28;20016;-70
2023/03/25 14:37:41;;;;;;;10.50;10.00;;;;;;;;;;5063794;28;20107;-69
2023/03/25 14:40:27;;;;;;;11.00;10.50;;;;;;;;;;5068671;28;20112;-70
2023/03/25 14:42:58;;;;;;;10.55;10.05;;;;;;;;;;5069449;28;20032;-70